アムステルダム/スキポール の空港の天気 - METARとTAF

スキポール空港(アムステルダム) ( EHAM / AMS ) - オランダ アムステルダム
飛行場実況気象(Metar)
観測時間02/05 20:55 CET (02/05 19:55 UTC)
風向・風速北北西 3m/s
視程10km以上
天気現象
なし
気温4℃
湿度93%
気圧1043hPa
METAREHAM 051955Z 33005KT CAVOK 04/03 Q1043 NOSIG
過去の天気等 Google飛行場航空写真 Wunderground天気予報

過去48時間のMETAR

飛行場予報(TAF)
発表時間: 2/05 18:21 CET (2/05 17:21 UTC)
予報対象時間: 5日19時 CET ~ 7日1時 CET
風向・風速北 4m/s
視程10km以上
なし
6日0時 CET ~ 6日3時 CET に徐々に
視程4500m
天気現象地霧
6日4時 CET ~ 6日10時 CET に 確率 30% で一時的に
視程600m
天気現象散在した霧
6日9時 CET ~ 6日12時 CET に徐々に
風向・風速不定 1m/s
視程10km以上
なし
6日20時 CET ~ 6日23時 CET に徐々に
視程4500m
天気現象地霧
6日23時 CET ~ 7日1時 CET に 確率 30% で一時的に
視程600m
天気現象散在した霧
TAF EHAM 051721Z 0518/0624 36007KT CAVOK
BECMG 0523/0602 4500 MIFG
PROB30 TEMPO 0603/0609 0600 BCFG
BECMG 0608/0611 VRB02KT CAVOK
BECMG 0619/0622 4500 MIFG
PROB30 TEMPO 0622/0624 0600 BCFG